Latest Coastal Weather Observations for Montague Island

IDN60701

Issued at 3:51 am EST Tuesday 28 June 2022 (issued every 10 minutes, with the page automatically refreshed every 10 minutes)

About coastal observations | Map of coastal stations | Coastal observations for NSW | Marine services | Other Formats
Station Details ID: 069017 Name: MONTAGUE ISLAND LIGHTHOUSE Lat: -36.25 Lon: 150.23 Height: 52.0 m
Data from the previous 72 hours. | See also: Recent months at Montague Island
Date/Time
EST
Wind Sea
Height
m
Swell Vis
km
Cloud Weather Temp
°C
Press
MSL
hPa
Rain since
9am
mm
Dir  Spd
kts
Gust
kts
Height
m
Period
s
Dir
28/03:30am SW 15 20 - - - - - - - 9.7 1029.9 0.0
28/03:00am SW 16 20 - - - - - - - 9.7 1030.0 0.0
28/02:30am WSW 17 21 - - - - - - - 9.6 1030.3 0.0
28/02:00am WSW 18 22 - - - - - - - 9.8 1030.6 0.0
28/01:30am WSW 19 23 - - - - - - - 9.6 1030.6 0.0
28/01:00am WSW 18 22 - - - - - - - 9.7 1030.6 0.0
28/12:30am SW 20 24 - - - - - - - 9.7 1030.7 0.0
28/12:00am SW 21 24 - - - - - - - 9.8 1030.8 0.0
 
Date/Time
EST
Wind Sea
Height
m
Swell Vis
km
Cloud Weather Temp
°C
Press
MSL
hPa
Rain since
9am
mm
Dir  Spd
kts
Gust
kts
Height
m
Period
s
Dir
27/11:30pm SW 21 26 - - - - - - - 10.0 1030.7 0.0
27/11:00pm SW 19 25 - - - - - - - 10.1 1030.9 0.0
27/10:30pm SW 18 23 - - - - - - - 10.2 1031.1 0.0
27/10:00pm SW 18 23 - - - - - - - 10.0 1031.1 0.0
27/09:30pm WSW 15 19 - - - - - - - 9.9 1031.0 0.0
27/09:00pm SW 18 21 - - - - - - - 10.5 1030.9 0.0
27/08:30pm SW 17 23 - - - - - - - 11.3 1031.0 0.0
27/08:29pm SW 18 25 - - - - - - - 11.3 1031.0 0.0
27/08:00pm SSW 23 29 - - - - - - - 11.2 1030.7 0.0
27/07:30pm SSW 23 28 - - - - - - - 11.3 1030.6 0.0
27/07:00pm SSW 21 26 - - - - - - - 11.4 1030.2 0.0
27/06:30pm SSW 21 25 - - - - - - - 11.2 1030.0 0.0
27/06:00pm S 21 26 - - - - - - - 11.6 1029.5 0.0
27/05:30pm SSW 22 26 - - - - - - - 11.7 1029.1 0.0
27/05:00pm SSW 22 26 - - - - - - - 11.6 1028.7 0.0
27/04:30pm SSW 20 25 - - - - - - - 11.7 1028.6 0.0
27/04:00pm SSW 19 26 - - - - - - - 12.3 1028.5 0.0
27/03:30pm SSW 22 26 - - - - - - - 12.5 1028.0 0.0
27/03:00pm SSW 20 26 - - - - - - - 12.7 1027.8 0.0
27/02:30pm SSW 23 29 - - - - - - - 12.7 1027.6 0.0
27/02:00pm SSW 25 31 - - - - - - - 13.0 1027.1 0.0
27/01:30pm SSW 24 30 - - - - - - - 13.2 1027.0 0.0
27/01:00pm SSW 22 28 - - - - - - - 13.2 1027.2 0.0
27/12:30pm SSW 21 28 - - - - - - - 13.1 1027.4 0.0
27/12:00pm SW 23 31 - - - - - - - 12.7 1027.2 0.0
27/11:30am SW 26 31 - - - - - - - 12.4 1027.3 0.0
27/11:00am SW 24 32 - - - - - - - 12.6 1027.8 0.0
27/10:30am SW 24 32 - - - - - - - 12.1 1027.8 0.0
27/10:00am SW 26 35 - - - - - - - 12.0 1027.7 0.0
27/09:52am SW 24 35 - - - - - - - 11.9 1027.6 0.0
27/09:30am SW 19 23 - - - - - - - 11.8 1027.9 0.0
27/09:00am SW 21 29 - - - - - - - 11.0 1027.4 0.0
27/08:30am SW 17 21 - - - - - - - 11.3 1027.4 0.0
27/08:00am SW 17 22 - - - - - - - 11.2 1027.2 0.0
27/07:30am SW 20 26 - - - - - - - 11.0 1026.7 0.0
27/07:00am SW 22 28 - - - - - - - 11.1 1026.2 0.0
27/06:30am SW 22 29 - - - - - - - 11.0 1025.8 0.0
27/06:00am SW 21 25 - - - - - - - 10.9 1025.6 0.0
27/05:30am SW 17 22 - - - - - - - 11.2 1025.3 0.0
27/05:00am SW 14 19 - - - - - - - 10.7 1025.3 0.0
27/04:30am SW 19 24 - - - - - - - 11.0 1024.9 0.0
27/04:00am SW 16 21 - - - - - - - 11.2 1024.4 0.0
27/03:30am SW 15 18 - - - - - - - 11.0 1024.3 0.0
27/03:00am SSW 15 19 - - - - - - - 10.9 1024.5 0.0
27/02:30am SW 16 19 - - - - - - - 11.1 1024.5 0.0
27/02:00am SSW 19 23 - - - - - - - 11.3 1024.3 0.0
27/01:30am SSW 20 25 - - - - - - - 11.6 1024.2 0.0
27/01:00am SSW 19 24 - - - - - - - 11.8 1024.3 0.0
27/12:30am S 19 23 - - - - - - - 11.8 1024.4 0.0
27/12:00am SSW 13 17 - - - - - - - 12.0 1024.6 0.0
 
Date/Time
EST
Wind Sea
Height
m
Swell Vis
km
Cloud Weather Temp
°C
Press
MSL
hPa
Rain since
9am
mm
Dir  Spd
kts
Gust
kts
Height
m
Period
s
Dir
26/11:30pm S 15 18 - - - - - - - 12.4 1024.7 0.0
26/11:00pm S 15 17 - - - - - - - 12.3 1024.6 0.0
26/10:30pm S 16 20 - - - - - - - 12.4 1024.6 0.0
26/10:00pm S 17 20 - - - - - - - 12.6 1024.2 0.0
26/09:30pm SSE 18 21 - - - - - - - 13.3 1024.0 0.0
26/09:04pm S 18 24 - - - - - - - 13.6 1023.7 0.0
26/09:00pm SSW 15 23 - - - - - - - 13.5 1023.8 0.0
26/08:59pm SW 14 23 - - - - - - - 13.6 1023.8 0.0
26/08:30pm WNW 11 12 - - - - - - - 13.1 1023.4 0.0
26/08:00pm NW 6 8 - - - - - - - 13.4 1023.1 0.0
26/07:30pm NW 6 7 - - - - - - - 13.4 1023.0 0.0
26/07:00pm WNW 6 7 - - - - - - - 13.4 1023.0 0.0
26/06:30pm WNW 7 9 - - - - - - - 13.3 1022.6 0.0
26/06:00pm N 7 8 - - - - - - - 14.2 1022.4 0.0
26/05:30pm N 7 7 - - - - - - - 14.2 1022.0 0.0
26/05:00pm NNE 7 8 - - - - - - - 14.2 1021.7 0.0
26/04:30pm NNE 8 10 - - - - - - - 14.4 1021.5 0.0
26/04:00pm NE 9 10 - - - - - - - 14.6 1021.3 0.0
26/03:30pm ENE 7 9 - - - - - - - 14.8 1021.4 0.0
26/03:00pm NE 6 7 - - - - - - - 15.1 1021.4 0.0
26/02:30pm NE 6 8 - - - - - - - 15.2 1021.5 0.0
26/02:00pm ENE 6 6 - - - - - - - 15.5 1021.3 0.0
26/01:30pm ENE 4 5 - - - - - - - 15.2 1021.3 0.0
26/01:00pm E 1 3 - - - - - - - 15.0 1021.6 0.0
26/12:30pm E 2 3 - - - - - - - 15.0 1021.9 0.0
26/12:00pm ENE 3 4 - - - - - - - 15.0 1022.0 0.0
26/11:30am NE 3 5 - - - - - - - 14.9 1022.3 0.0
26/11:00am NNE 2 5 - - - - - - - 15.5 1022.8 0.0
26/10:30am NW 1 2 - - - - - - - 15.7 1023.0 0.0
26/10:00am W 3 4 - - - - - - - 14.5 1023.2 0.0
26/09:30am WSW 4 4 - - - - - - - 13.0 1023.0 0.0
26/09:00am W 2 3 - - - - - - - 12.7 1022.8 0.0
26/08:30am NW 3 5 - - - - - - - 12.3 1022.7 0.0
26/08:00am SSW 3 4 - - - - - - - 11.2 1022.5 0.0
26/07:30am WSW 4 4 - - - - - - - 10.5 1022.1 0.0
26/07:00am WSW 5 6 - - - - - - - 10.0 1021.9 0.0
26/06:30am NW 4 4 - - - - - - - 10.5 1021.6 0.0
26/06:00am WNW 4 4 - - - - - - - 10.4 1021.7 0.0
26/05:30am WNW 3 4 - - - - - - - 10.6 1021.4 0.0
26/05:00am SE 1 3 - - - - - - - 11.4 1021.1 0.0
26/04:30am SE 2 2 - - - - - - - 11.6 1021.1 0.0
26/04:00am W 1 2 - - - - - - - 11.1 1021.1 0.0
26/03:30am CALM 0 1 - - - - - - - 11.5 1021.1 0.0
26/03:00am WSW 3 4 - - - - - - - 10.5 1021.1 0.0
26/02:30am WSW 5 6 - - - - - - - 11.0 1021.0 0.0
26/02:00am W 5 6 - - - - - - - 10.9 1020.9 0.0
26/01:30am WNW 6 8 - - - - - - - 11.3 1020.9 0.0
26/01:00am WNW 6 8 - - - - - - - 11.2 1020.9 0.0
26/12:30am WNW 9 11 - - - - - - - 12.1 1021.0 0.0
26/12:00am W 9 10 - - - - - - - 11.3 1021.2 0.0
 
Date/Time
EST
Wind Sea
Height
m
Swell Vis
km
Cloud Weather Temp
°C
Press
MSL
hPa
Rain since
9am
mm
Dir  Spd
kts
Gust
kts
Height
m
Period
s
Dir
25/11:30pm W 8 9 - - - - - - - 11.5 1021.3 0.0
25/11:00pm WNW 9 11 - - - - - - - 12.0 1021.1 0.0
25/10:30pm WNW 13 16 - - - - - - - 12.3 1021.0 0.0
25/10:00pm WNW 14 16 - - - - - - - 12.3 1021.1 0.0
25/09:30pm WNW 13 17 - - - - - - - 12.6 1021.1 0.0
25/09:00pm WNW 13 17 - - - - - - - 12.5 1021.0 0.0
25/08:30pm W 14 18 - - - - - - - 12.6 1021.2 0.0
25/08:00pm W 11 14 - - - - - - - 12.6 1021.3 0.0
25/07:30pm WNW 12 16 - - - - - - - 12.9 1021.1 0.0
25/07:00pm WNW 6 10 - - - - - - - 14.0 1021.0 0.0
25/06:30pm NNE 4 5 - - - - - - - 14.0 1020.7 0.0
25/06:00pm E 4 5 - - - - - - - 14.0 1020.3 0.0
25/05:30pm E 6 7 - - - - - - - 14.2 1019.8 0.0
25/05:00pm E 7 8 - - - - - - - 14.1 1019.5 0.0
25/04:30pm E 7 8 - - - - - - - 14.2 1019.4 0.0
25/04:00pm E 8 9 - - - - - - - 14.3 1019.2 0.0
25/03:30pm ESE 8 9 - - - - - - - 14.2 1019.0 0.0
25/03:00pm E 6 7 - - - - - - - 14.6 1018.7 0.0
25/02:30pm E 5 6 - - - - - - - 14.8 1018.6 0.0
25/02:00pm ESE 5 6 - - - - - - - 14.7 1018.7 0.0
25/01:30pm NNE 2 3 - - - - - - - 16.3 1018.8 0.0
25/01:00pm NW 2 4 - - - - - - - 16.7 1018.9 0.0
25/12:30pm S 1 3 - - - - - - - 15.3 1019.1 0.0
25/12:00pm WNW 4 7 - - - - - - - 16.6 1019.3 0.0
25/11:30am WNW 6 7 - - - - - - - 16.0 1019.6 0.0
25/11:00am W 3 4 - - - - - - - 15.7 1020.0 0.0
25/10:30am W 5 7 - - - - - - - 15.2 1020.2 0.0
25/10:00am WSW 5 6 - - - - - - - 14.8 1020.1 0.0
25/09:30am SW 4 5 - - - - - - - 14.1 1020.1 0.0
25/09:00am SW 6 8 - - - - - - - 14.0 1019.7 0.0
25/08:30am WSW 7 9 - - - - - - - 13.5 1019.5 0.0
25/08:00am W 8 10 - - - - - - - 12.4 1019.3 0.0
25/07:30am W 6 7 - - - - - - - 11.8 1019.2 0.0
25/07:00am W 4 5 - - - - - - - 11.8 1019.1 0.0
25/06:30am W 5 6 - - - - - - - 11.9 1018.8 0.0
25/06:00am W 4 5 - - - - - - - 11.9 1018.4 0.0
25/05:30am W 5 6 - - - - - - - 11.8 1018.0 0.0
25/05:00am W 4 5 - - - - - - - 12.1 1017.7 0.0
25/04:30am W 4 5 - - - - - - - 12.1 1017.6 0.0
25/04:00am W 5 6 - - - - - - - 12.3 1017.5 0.0

Other formats

Comma delimited format used in spreadsheet applications
http://www.bom.gov.au/fwo/IDN60701/IDN60701.94939.axf

JavaScript Object Notation format (JSON) in row-major order
http://www.bom.gov.au/fwo/IDN60701/IDN60701.94939.json

Data quality

Most of these data are generated automatically and are frequently updated. Quality checks on data are not normally performed. It is possible for incorrect values to appear. Refer to information at About Latest Weather Observations and please check the disclaimer before using these data.